sensor_id;sensor_type;location;lat;lon;timestamp;temperature;humidity
5492;DHT22;2768;53.540;10.224;2023-07-30T00:00:18;18.30;1.00
5492;DHT22;2768;53.540;10.224;2023-07-30T00:06:11;18.30;1.00
5492;DHT22;2768;53.540;10.224;2023-07-30T00:12:07;18.30;1.00
5492;DHT22;2768;53.540;10.224;2023-07-30T00:18:00;18.40;1.00
5492;DHT22;2768;53.540;10.224;2023-07-30T00:23:54;18.40;1.00
5492;DHT22;2768;53.540;10.224;2023-07-30T00:29:48;18.30;1.00
5492;DHT22;2768;53.540;10.224;2023-07-30T00:35:42;18.20;1.00
5492;DHT22;2768;53.540;10.224;2023-07-30T00:41:35;17.80;36.80
5492;DHT22;2768;53.540;10.224;2023-07-30T00:47:31;17.60;99.90
5492;DHT22;2768;53.540;10.224;2023-07-30T00:53:26;17.50;99.90
5492;DHT22;2768;53.540;10.224;2023-07-30T00:59:20;17.50;99.90
5492;DHT22;2768;53.540;10.224;2023-07-30T01:05:15;17.70;99.90
5492;DHT22;2768;53.540;10.224;2023-07-30T01:11:10;17.90;99.90
5492;DHT22;2768;53.540;10.224;2023-07-30T01:17:04;18.10;99.90
5492;DHT22;2768;53.540;10.224;2023-07-30T01:22:58;18.20;99.90
5492;DHT22;2768;53.540;10.224;2023-07-30T01:28:54;18.00;99.90
5492;DHT22;2768;53.540;10.224;2023-07-30T01:34:52;18.20;99.90
5492;DHT22;2768;53.540;10.224;2023-07-30T01:40:47;17.90;65.10
5492;DHT22;2768;53.540;10.224;2023-07-30T01:46:40;17.90;54.20
5492;DHT22;2768;53.540;10.224;2023-07-30T01:52:35;18.10;70.70
5492;DHT22;2768;53.540;10.224;2023-07-30T01:58:29;17.90;25.20
5492;DHT22;2768;53.540;10.224;2023-07-30T02:04:22;17.80;12.10
5492;DHT22;2768;53.540;10.224;2023-07-30T02:10:16;17.90;1.00
5492;DHT22;2768;53.540;10.224;2023-07-30T02:16:10;17.80;1.00
5492;DHT22;2768;53.540;10.224;2023-07-30T02:22:04;17.80;1.00
5492;DHT22;2768;53.540;10.224;2023-07-30T02:27:59;17.60;1.00
5492;DHT22;2768;53.540;10.224;2023-07-30T02:33:54;17.80;1.00
5492;DHT22;2768;53.540;10.224;2023-07-30T02:39:47;17.60;1.00
5492;DHT22;2768;53.540;10.224;2023-07-30T02:45:40;17.60;12.40
5492;DHT22;2768;53.540;10.224;2023-07-30T02:51:35;17.60;18.00
5492;DHT22;2768;53.540;10.224;2023-07-30T02:57:28;17.70;18.40
5492;DHT22;2768;53.540;10.224;2023-07-30T03:03:21;17.60;14.10
5492;DHT22;2768;53.540;10.224;2023-07-30T03:09:16;17.50;17.50
5492;DHT22;2768;53.540;10.224;2023-07-30T03:15:10;17.50;24.20
5492;DHT22;2768;53.540;10.224;2023-07-30T03:21:03;17.20;18.90
5492;DHT22;2768;53.540;10.224;2023-07-30T03:26:58;17.20;48.60
5492;DHT22;2768;53.540;10.224;2023-07-30T03:32:52;17.20;57.60
5492;DHT22;2768;53.540;10.224;2023-07-30T03:38:45;17.10;59.60
5492;DHT22;2768;53.540;10.224;2023-07-30T03:44:39;17.10;77.60
5492;DHT22;2768;53.540;10.224;2023-07-30T03:50:33;17.10;88.80
5492;DHT22;2768;53.540;10.224;2023-07-30T03:56:26;17.10;88.90
5492;DHT22;2768;53.540;10.224;2023-07-30T04:02:21;17.30;89.50
5492;DHT22;2768;53.540;10.224;2023-07-30T04:08:15;17.40;52.10
5492;DHT22;2768;53.540;10.224;2023-07-30T04:14:08;17.30;29.40
5492;DHT22;2768;53.540;10.224;2023-07-30T04:20:04;17.30;27.60
5492;DHT22;2768;53.540;10.224;2023-07-30T04:25:57;17.40;17.30
5492;DHT22;2768;53.540;10.224;2023-07-30T04:31:51;17.20;4.60
5492;DHT22;2768;53.540;10.224;2023-07-30T04:37:45;17.30;14.60
5492;DHT22;2768;53.540;10.224;2023-07-30T04:43:38;17.30;10.50
5492;DHT22;2768;53.540;10.224;2023-07-30T04:49:32;17.30;12.40
5492;DHT22;2768;53.540;10.224;2023-07-30T04:55:27;17.20;23.60
5492;DHT22;2768;53.540;10.224;2023-07-30T05:01:21;17.20;43.40
5492;DHT22;2768;53.540;10.224;2023-07-30T05:07:14;17.20;58.80
5492;DHT22;2768;53.540;10.224;2023-07-30T05:13:09;17.20;64.50
5492;DHT22;2768;53.540;10.224;2023-07-30T05:19:04;17.30;64.60
5492;DHT22;2768;53.540;10.224;2023-07-30T05:24:58;17.20;58.60
5492;DHT22;2768;53.540;10.224;2023-07-30T05:30:52;17.20;60.40
5492;DHT22;2768;53.540;10.224;2023-07-30T05:36:45;17.30;69.00
5492;DHT22;2768;53.540;10.224;2023-07-30T05:42:39;17.20;88.90
5492;DHT22;2768;53.540;10.224;2023-07-30T05:48:33;17.20;97.30
5492;DHT22;2768;53.540;10.224;2023-07-30T05:54:26;17.20;99.90
5492;DHT22;2768;53.540;10.224;2023-07-30T06:00:19;17.20;99.90
5492;DHT22;2768;53.540;10.224;2023-07-30T06:06:14;17.40;99.90
5492;DHT22;2768;53.540;10.224;2023-07-30T06:12:07;17.30;99.90
5492;DHT22;2768;53.540;10.224;2023-07-30T06:18:01;17.20;97.90
5492;DHT22;2768;53.540;10.224;2023-07-30T06:23:56;17.40;99.90
5492;DHT22;2768;53.540;10.224;2023-07-30T06:29:50;17.30;99.90
5492;DHT22;2768;53.540;10.224;2023-07-30T06:35:43;17.40;99.90
5492;DHT22;2768;53.540;10.224;2023-07-30T06:41:38;17.30;97.80
5492;DHT22;2768;53.540;10.224;2023-07-30T06:47:32;17.30;93.20
5492;DHT22;2768;53.540;10.224;2023-07-30T06:53:27;17.40;91.90
5492;DHT22;2768;53.540;10.224;2023-07-30T06:59:22;17.50;98.80
5492;DHT22;2768;53.540;10.224;2023-07-30T07:05:15;17.60;99.90
5492;DHT22;2768;53.540;10.224;2023-07-30T07:11:09;17.70;98.40
5492;DHT22;2768;53.540;10.224;2023-07-30T07:17:04;17.70;95.50
5492;DHT22;2768;53.540;10.224;2023-07-30T07:22:57;17.80;99.60
5492;DHT22;2768;53.540;10.224;2023-07-30T07:28:50;18.00;99.90
5492;DHT22;2768;53.540;10.224;2023-07-30T07:34:47;18.10;99.90
5492;DHT22;2768;53.540;10.224;2023-07-30T07:40:40;18.00;75.60
5492;DHT22;2768;53.540;10.224;2023-07-30T07:46:34;18.20;74.90
5492;DHT22;2768;53.540;10.224;2023-07-30T07:52:28;18.20;65.40
5492;DHT22;2768;53.540;10.224;2023-07-30T07:58:22;18.20;37.00
5492;DHT22;2768;53.540;10.224;2023-07-30T08:04:15;18.30;7.30
5492;DHT22;2768;53.540;10.224;2023-07-30T08:10:09;18.10;1.00
5492;DHT22;2768;53.540;10.224;2023-07-30T08:16:03;18.20;1.00
5492;DHT22;2768;53.540;10.224;2023-07-30T08:21:57;18.40;1.00
5492;DHT22;2768;53.540;10.224;2023-07-30T08:27:52;18.30;1.00
5492;DHT22;2768;53.540;10.224;2023-07-30T08:33:45;18.30;1.00
5492;DHT22;2768;53.540;10.224;2023-07-30T08:39:39;18.50;1.00
5492;DHT22;2768;53.540;10.224;2023-07-30T08:45:33;18.60;1.00
5492;DHT22;2768;53.540;10.224;2023-07-30T08:51:27;18.70;1.00
5492;DHT22;2768;53.540;10.224;2023-07-30T08:57:21;19.00;1.00
5492;DHT22;2768;53.540;10.224;2023-07-30T09:03:17;19.10;1.00
5492;DHT22;2768;53.540;10.224;2023-07-30T09:09:10;19.30;1.00
5492;DHT22;2768;53.540;10.224;2023-07-30T09:15:05;19.20;1.00
5492;DHT22;2768;53.540;10.224;2023-07-30T09:21:02;19.20;1.00
5492;DHT22;2768;53.540;10.224;2023-07-30T09:26:55;19.30;1.00
5492;DHT22;2768;53.540;10.224;2023-07-30T09:32:51;19.50;1.00
5492;DHT22;2768;53.540;10.224;2023-07-30T09:38:47;19.60;1.00
5492;DHT22;2768;53.540;10.224;2023-07-30T09:44:41;19.50;1.00
5492;DHT22;2768;53.540;10.224;2023-07-30T09:50:36;19.50;1.00
5492;DHT22;2768;53.540;10.224;2023-07-30T09:56:31;19.60;1.00
5492;DHT22;2768;53.540;10.224;2023-07-30T10:02:27;19.70;1.00
5492;DHT22;2768;53.540;10.224;2023-07-30T10:08:25;19.70;1.00
5492;DHT22;2768;53.540;10.224;2023-07-30T10:14:22;19.70;99.90
5492;DHT22;2768;53.540;10.224;2023-07-30T10:20:21;19.70;99.90
5492;DHT22;2768;53.540;10.224;2023-07-30T10:26:15;19.70;99.90
5492;DHT22;2768;53.540;10.224;2023-07-30T10:32:09;19.80;99.90
5492;DHT22;2768;53.540;10.224;2023-07-30T10:38:13;20.00;99.90
5492;DHT22;2768;53.540;10.224;2023-07-30T10:44:06;20.20;99.90
5492;DHT22;2768;53.540;10.224;2023-07-30T10:50:02;20.00;99.90
5492;DHT22;2768;53.540;10.224;2023-07-30T10:55:58;20.10;99.90
5492;DHT22;2768;53.540;10.224;2023-07-30T11:01:54;20.10;99.90
5492;DHT22;2768;53.540;10.224;2023-07-30T11:07:52;19.90;99.90
5492;DHT22;2768;53.540;10.224;2023-07-30T11:13:47;19.90;99.90
5492;DHT22;2768;53.540;10.224;2023-07-30T11:19:43;19.80;99.90
5492;DHT22;2768;53.540;10.224;2023-07-30T11:25:37;19.70;99.90
5492;DHT22;2768;53.540;10.224;2023-07-30T11:31:31;19.60;99.90
5492;DHT22;2768;53.540;10.224;2023-07-30T11:37:26;19.90;99.90
5492;DHT22;2768;53.540;10.224;2023-07-30T11:43:22;20.30;99.90
5492;DHT22;2768;53.540;10.224;2023-07-30T11:49:16;20.70;99.90
5492;DHT22;2768;53.540;10.224;2023-07-30T11:55:10;20.70;99.90
5492;DHT22;2768;53.540;10.224;2023-07-30T12:01:06;20.90;99.90
5492;DHT22;2768;53.540;10.224;2023-07-30T12:07:03;21.10;99.90
5492;DHT22;2768;53.540;10.224;2023-07-30T12:12:57;21.30;99.90
5492;DHT22;2768;53.540;10.224;2023-07-30T12:18:52;21.30;99.90
5492;DHT22;2768;53.540;10.224;2023-07-30T12:24:45;21.40;99.90
5492;DHT22;2768;53.540;10.224;2023-07-30T12:30:39;21.50;99.90
5492;DHT22;2768;53.540;10.224;2023-07-30T12:36:35;21.20;99.90
5492;DHT22;2768;53.540;10.224;2023-07-30T12:42:28;21.20;99.90
5492;DHT22;2768;53.540;10.224;2023-07-30T12:48:21;21.50;99.90
5492;DHT22;2768;53.540;10.224;2023-07-30T12:54:16;21.50;99.90
5492;DHT22;2768;53.540;10.224;2023-07-30T13:00:11;21.70;99.90
5492;DHT22;2768;53.540;10.224;2023-07-30T13:06:04;22.00;99.90
5492;DHT22;2768;53.540;10.224;2023-07-30T13:11:59;22.20;99.90
5492;DHT22;2768;53.540;10.224;2023-07-30T13:17:53;22.00;99.90
5492;DHT22;2768;53.540;10.224;2023-07-30T13:23:47;21.60;97.80
5492;DHT22;2768;53.540;10.224;2023-07-30T13:29:41;21.20;95.80
5492;DHT22;2768;53.540;10.224;2023-07-30T13:35:35;20.30;99.90
5492;DHT22;2768;53.540;10.224;2023-07-30T13:41:28;17.40;99.90
5492;DHT22;2768;53.540;10.224;2023-07-30T13:47:23;16.80;1.00
5492;DHT22;2768;53.540;10.224;2023-07-30T13:53:16;17.10;1.00
5492;DHT22;2768;53.540;10.224;2023-07-30T13:59:10;16.50;1.00
5492;DHT22;2768;53.540;10.224;2023-07-30T14:05:05;16.50;1.00
5492;DHT22;2768;53.540;10.224;2023-07-30T14:10:59;16.20;1.00
5492;DHT22;2768;53.540;10.224;2023-07-30T14:16:53;16.40;1.00
5492;DHT22;2768;53.540;10.224;2023-07-30T14:22:48;16.50;1.00
5492;DHT22;2768;53.540;10.224;2023-07-30T14:28:43;16.90;1.00
5492;DHT22;2768;53.540;10.224;2023-07-30T14:34:37;17.90;1.00
5492;DHT22;2768;53.540;10.224;2023-07-30T14:40:32;19.00;99.90
5492;DHT22;2768;53.540;10.224;2023-07-30T14:46:25;20.60;99.90
5492;DHT22;2768;53.540;10.224;2023-07-30T14:52:19;19.70;99.90
5492;DHT22;2768;53.540;10.224;2023-07-30T14:58:14;19.30;99.90
5492;DHT22;2768;53.540;10.224;2023-07-30T15:04:07;18.90;99.90
5492;DHT22;2768;53.540;10.224;2023-07-30T15:10:02;19.10;99.90
5492;DHT22;2768;53.540;10.224;2023-07-30T15:15:57;19.00;99.90
5492;DHT22;2768;53.540;10.224;2023-07-30T15:21:51;19.00;99.90
5492;DHT22;2768;53.540;10.224;2023-07-30T15:27:44;19.10;99.90
5492;DHT22;2768;53.540;10.224;2023-07-30T15:33:39;19.30;99.90
5492;DHT22;2768;53.540;10.224;2023-07-30T15:39:32;19.50;99.90
5492;DHT22;2768;53.540;10.224;2023-07-30T15:45:27;19.50;99.90
5492;DHT22;2768;53.540;10.224;2023-07-30T15:51:22;19.40;99.90
5492;DHT22;2768;53.540;10.224;2023-07-30T15:57:15;19.30;99.90
5492;DHT22;2768;53.540;10.224;2023-07-30T16:03:09;19.00;99.90
5492;DHT22;2768;53.540;10.224;2023-07-30T16:09:04;19.10;99.90
5492;DHT22;2768;53.540;10.224;2023-07-30T16:14:58;19.00;99.90
5492;DHT22;2768;53.540;10.224;2023-07-30T16:21:00;18.80;99.90
5492;DHT22;2768;53.540;10.224;2023-07-30T16:26:54;18.60;99.90
5492;DHT22;2768;53.540;10.224;2023-07-30T16:32:48;18.50;99.90
5492;DHT22;2768;53.540;10.224;2023-07-30T16:38:41;18.60;99.90
5492;DHT22;2768;53.540;10.224;2023-07-30T16:44:36;18.60;99.90
5492;DHT22;2768;53.540;10.224;2023-07-30T16:50:30;18.50;99.90
5492;DHT22;2768;53.540;10.224;2023-07-30T16:56:23;18.50;99.90
5492;DHT22;2768;53.540;10.224;2023-07-30T17:02:18;18.60;99.90
5492;DHT22;2768;53.540;10.224;2023-07-30T17:08:11;18.60;99.90
5492;DHT22;2768;53.540;10.224;2023-07-30T17:14:05;18.80;99.90
5492;DHT22;2768;53.540;10.224;2023-07-30T17:20:00;18.70;99.90
5492;DHT22;2768;53.540;10.224;2023-07-30T17:25:58;18.60;99.90
5492;DHT22;2768;53.540;10.224;2023-07-30T17:31:52;18.50;99.90
5492;DHT22;2768;53.540;10.224;2023-07-30T17:37:47;18.30;99.90
5492;DHT22;2768;53.540;10.224;2023-07-30T17:43:40;18.30;99.90
5492;DHT22;2768;53.540;10.224;2023-07-30T17:49:34;18.20;99.90
5492;DHT22;2768;53.540;10.224;2023-07-30T17:55:28;18.20;99.90
5492;DHT22;2768;53.540;10.224;2023-07-30T18:01:22;18.10;99.90
5492;DHT22;2768;53.540;10.224;2023-07-30T18:07:15;18.00;99.90
5492;DHT22;2768;53.540;10.224;2023-07-30T18:13:09;18.00;99.90
5492;DHT22;2768;53.540;10.224;2023-07-30T18:19:03;18.00;99.90
5492;DHT22;2768;53.540;10.224;2023-07-30T18:24:56;16.90;99.90
5492;DHT22;2768;53.540;10.224;2023-07-30T18:30:51;16.20;1.00
5492;DHT22;2768;53.540;10.224;2023-07-30T18:36:44;16.20;1.00
5492;DHT22;2768;53.540;10.224;2023-07-30T18:42:37;16.20;1.00
5492;DHT22;2768;53.540;10.224;2023-07-30T18:48:32;16.20;1.00
5492;DHT22;2768;53.540;10.224;2023-07-30T18:54:25;16.10;1.00
5492;DHT22;2768;53.540;10.224;2023-07-30T19:00:19;16.20;1.00
5492;DHT22;2768;53.540;10.224;2023-07-30T19:06:13;16.20;1.00
5492;DHT22;2768;53.540;10.224;2023-07-30T19:12:07;16.10;1.00
5492;DHT22;2768;53.540;10.224;2023-07-30T19:18:00;16.20;1.00
5492;DHT22;2768;53.540;10.224;2023-07-30T19:23:55;16.30;1.00
5492;DHT22;2768;53.540;10.224;2023-07-30T19:29:49;16.50;1.00
5492;DHT22;2768;53.540;10.224;2023-07-30T19:35:42;16.30;1.00
5492;DHT22;2768;53.540;10.224;2023-07-30T19:41:43;16.50;1.00
5492;DHT22;2768;53.540;10.224;2023-07-30T19:47:37;16.50;1.00
5492;DHT22;2768;53.540;10.224;2023-07-30T19:53:30;16.40;1.00
5492;DHT22;2768;53.540;10.224;2023-07-30T19:59:25;16.40;1.00
5492;DHT22;2768;53.540;10.224;2023-07-30T20:05:18;16.50;1.00
5492;DHT22;2768;53.540;10.224;2023-07-30T20:11:13;16.60;1.00
5492;DHT22;2768;53.540;10.224;2023-07-30T20:17:09;16.70;1.00
5492;DHT22;2768;53.540;10.224;2023-07-30T20:23:03;16.40;1.00
5492;DHT22;2768;53.540;10.224;2023-07-30T20:28:56;16.50;1.00
5492;DHT22;2768;53.540;10.224;2023-07-30T20:34:54;16.40;1.00
5492;DHT22;2768;53.540;10.224;2023-07-30T20:40:47;16.30;1.00
5492;DHT22;2768;53.540;10.224;2023-07-30T20:46:41;16.40;1.00
5492;DHT22;2768;53.540;10.224;2023-07-30T20:52:36;16.30;1.00
5492;DHT22;2768;53.540;10.224;2023-07-30T20:58:29;16.20;1.00
5492;DHT22;2768;53.540;10.224;2023-07-30T21:04:23;16.10;1.00
5492;DHT22;2768;53.540;10.224;2023-07-30T21:10:18;16.10;1.00
5492;DHT22;2768;53.540;10.224;2023-07-30T21:16:11;16.20;1.00
5492;DHT22;2768;53.540;10.224;2023-07-30T21:22:05;16.00;1.00
5492;DHT22;2768;53.540;10.224;2023-07-30T21:27:59;15.80;1.00
5492;DHT22;2768;53.540;10.224;2023-07-30T21:33:53;15.90;1.00
5492;DHT22;2768;53.540;10.224;2023-07-30T21:39:46;15.90;1.00
5492;DHT22;2768;53.540;10.224;2023-07-30T21:45:41;15.90;1.00
5492;DHT22;2768;53.540;10.224;2023-07-30T21:51:34;15.90;1.00
5492;DHT22;2768;53.540;10.224;2023-07-30T21:57:27;16.00;1.00
5492;DHT22;2768;53.540;10.224;2023-07-30T22:03:23;16.00;1.00
5492;DHT22;2768;53.540;10.224;2023-07-30T22:09:16;15.90;1.00
5492;DHT22;2768;53.540;10.224;2023-07-30T22:15:10;16.00;1.00
5492;DHT22;2768;53.540;10.224;2023-07-30T22:21:04;15.80;1.00
5492;DHT22;2768;53.540;10.224;2023-07-30T22:26:57;15.90;1.00
5492;DHT22;2768;53.540;10.224;2023-07-30T22:32:51;15.90;1.00
5492;DHT22;2768;53.540;10.224;2023-07-30T22:38:45;15.90;1.00
5492;DHT22;2768;53.540;10.224;2023-07-30T22:44:39;15.90;1.00
5492;DHT22;2768;53.540;10.224;2023-07-30T22:50:32;15.90;1.00
5492;DHT22;2768;53.540;10.224;2023-07-30T22:56:27;15.70;1.00
5492;DHT22;2768;53.540;10.224;2023-07-30T23:02:20;15.70;1.00
5492;DHT22;2768;53.540;10.224;2023-07-30T23:08:13;15.70;1.00
5492;DHT22;2768;53.540;10.224;2023-07-30T23:14:08;15.70;1.00
5492;DHT22;2768;53.540;10.224;2023-07-30T23:20:02;15.70;1.00
5492;DHT22;2768;53.540;10.224;2023-07-30T23:25:55;15.50;1.00
5492;DHT22;2768;53.540;10.224;2023-07-30T23:31:51;15.50;1.00
5492;DHT22;2768;53.540;10.224;2023-07-30T23:37:45;15.40;1.00
5492;DHT22;2768;53.540;10.224;2023-07-30T23:43:38;15.40;1.00
5492;DHT22;2768;53.540;10.224;2023-07-30T23:49:33;15.30;1.00
5492;DHT22;2768;53.540;10.224;2023-07-30T23:55:26;15.30;1.00
